Time;durP1;ratioP1;P1;durP2;ratioP2;P2;SDS_P1;SDS_P2;PMS_P1;PMS_P2;Temp;Humidity;BMP_temperature;BMP_pressure;BME280_temperature;BME280_humidity;BME280_pressure;Samples;Min_cycle;Max_cycle;Signal;HPM_P1;HPM_P2
2021/07/10 00:00:28;;;;;;;;;;;26.40;51.60;;;;;;5087279;28;19939;-61
2021/07/10 00:02:53;;;;;;;;;;;26.30;51.60;;;;;;5088098;28;20351;-59
2021/07/10 00:05:19;;;;;;;;;;;26.30;51.60;;;;;;5087742;28;19922;-60
2021/07/10 00:07:44;;;;;;;;;;;26.30;51.60;;;;;;5093129;28;19919;-60
2021/07/10 00:10:12;;;;;;;;;;;26.30;51.60;;;;;;5087351;28;19951;-59
2021/07/10 00:12:38;;;;;;;;;;;26.30;51.70;;;;;;5087882;28;19910;-59
2021/07/10 00:15:05;;;;;;;;;;;26.30;51.70;;;;;;5087243;28;19911;-59
2021/07/10 00:17:30;;;;;;;;;;;26.30;51.80;;;;;;5087627;28;20002;-59
2021/07/10 00:19:56;;;;;;;;;;;26.20;51.70;;;;;;5086763;28;20532;-59
2021/07/10 00:22:22;;;;;;;;;;;26.20;51.80;;;;;;5086979;28;19955;-59
2021/07/10 00:24:47;;;;;;;;;;;26.20;51.80;;;;;;5086559;28;19943;-60
2021/07/10 00:27:14;;;;;;;;;;;26.20;51.80;;;;;;5086222;28;19950;-59
2021/07/10 00:29:39;;;;;;;;;;;26.20;51.80;;;;;;5086643;28;20426;-59
2021/07/10 00:32:05;;;;;;;;;;;26.20;51.80;;;;;;5088041;28;20018;-59
2021/07/10 00:34:31;;;;;;;;;;;26.10;51.80;;;;;;5087075;28;19912;-60
2021/07/10 00:36:56;;;;;;;;;;;26.10;52.40;;;;;;5085165;28;19908;-59
2021/07/10 00:39:21;;;;;;;;;;;26.10;51.90;;;;;;5091111;28;19943;-61
2021/07/10 00:41:47;;;;;;;;;;;26.10;51.90;;;;;;5088079;28;19916;-58
2021/07/10 00:44:12;;;;;;;;;;;26.10;51.90;;;;;;5087121;28;19916;-59
2021/07/10 00:46:38;;;;;;;;;;;26.10;51.90;;;;;;5085985;28;20424;-60
2021/07/10 00:49:04;;;;;;;;;;;26.00;52.00;;;;;;5082766;28;20726;-60
2021/07/10 00:51:29;;;;;;;;;;;26.00;52.00;;;;;;5092625;28;19934;-60
2021/07/10 00:53:55;;;;;;;;;;;26.00;51.90;;;;;;5085826;28;19916;-60
2021/07/10 00:56:20;;;;;;;;;;;26.00;52.00;;;;;;5085152;28;20445;-59
2021/07/10 00:58:46;;;;;;;;;;;26.00;52.00;;;;;;5096188;28;20014;-60
2021/07/10 01:01:12;;;;;;;;;;;25.90;52.00;;;;;;5086629;28;19920;-59
2021/07/10 01:03:44;;;;;;;;;;;25.90;52.00;;;;;;5086687;28;19908;-59
2021/07/10 01:06:09;;;;;;;;;;;25.90;52.00;;;;;;5084477;28;19915;-61
2021/07/10 01:08:35;;;;;;;;;;;25.90;52.00;;;;;;5083971;28;20522;-59
2021/07/10 01:11:01;;;;;;;;;;;25.90;52.00;;;;;;5086472;28;20003;-59
2021/07/10 01:13:26;;;;;;;;;;;25.90;52.00;;;;;;5087086;28;19999;-60
2021/07/10 01:15:52;;;;;;;;;;;25.90;52.00;;;;;;5088604;28;19955;-59
2021/07/10 01:18:17;;;;;;;;;;;25.90;52.10;;;;;;5086141;28;20014;-60
2021/07/10 01:20:50;;;;;;;;;;;25.80;52.00;;;;;;5085450;28;19959;-60
2021/07/10 01:23:16;;;;;;;;;;;25.80;52.10;;;;;;5084967;28;19924;-59
2021/07/10 01:25:42;;;;;;;;;;;25.80;52.10;;;;;;5087024;28;19915;-59
2021/07/10 01:28:08;;;;;;;;;;;25.80;52.10;;;;;;5091546;28;19930;-59
2021/07/10 01:30:35;;;;;;;;;;;25.80;52.10;;;;;;5085952;28;19916;-60
2021/07/10 01:33:00;;;;;;;;;;;25.80;52.10;;;;;;5088901;28;19916;-59
2021/07/10 01:35:26;;;;;;;;;;;25.80;52.20;;;;;;5086767;28;20232;-60
2021/07/10 01:37:51;;;;;;;;;;;25.70;52.10;;;;;;5088044;28;19989;-60
2021/07/10 01:40:18;;;;;;;;;;;25.80;52.20;;;;;;5088542;28;19927;-59
2021/07/10 01:42:44;;;;;;;;;;;25.70;52.10;;;;;;5089855;28;19903;-60
2021/07/10 01:45:10;;;;;;;;;;;25.70;52.20;;;;;;5087242;28;19958;-60
2021/07/10 01:47:36;;;;;;;;;;;25.70;52.20;;;;;;5089639;28;19908;-59
2021/07/10 01:50:04;;;;;;;;;;;25.70;52.20;;;;;;5089774;28;19915;-60
2021/07/10 01:52:29;;;;;;;;;;;25.70;52.20;;;;;;5077239;28;20338;-60
2021/07/10 01:54:55;;;;;;;;;;;25.70;52.20;;;;;;5086073;28;19908;-60
2021/07/10 01:57:20;;;;;;;;;;;25.70;52.30;;;;;;5087491;28;19916;-60
2021/07/10 01:59:46;;;;;;;;;;;25.60;52.20;;;;;;5090477;28;20327;-58
2021/07/10 02:02:12;;;;;;;;;;;25.60;52.20;;;;;;5088395;28;19990;-60
2021/07/10 02:04:50;;;;;;;;;;;25.60;52.20;;;;;;5088230;28;19908;-59
2021/07/10 02:07:16;;;;;;;;;;;25.60;52.30;;;;;;5088156;28;19919;-60
2021/07/10 02:09:42;;;;;;;;;;;25.60;52.30;;;;;;5087955;28;19904;-59
2021/07/10 02:12:08;;;;;;;;;;;25.60;52.30;;;;;;5087525;28;20355;-60
2021/07/10 02:14:33;;;;;;;;;;;25.60;52.30;;;;;;5088801;28;19916;-60
2021/07/10 02:16:59;;;;;;;;;;;25.60;52.30;;;;;;5087042;28;20365;-59
2021/07/10 02:19:24;;;;;;;;;;;25.60;52.30;;;;;;5086994;28;19981;-60
2021/07/10 02:21:50;;;;;;;;;;;25.50;52.30;;;;;;5087680;28;19912;-60
2021/07/10 02:24:15;;;;;;;;;;;25.60;52.40;;;;;;5086747;28;19916;-61
2021/07/10 02:26:41;;;;;;;;;;;25.60;52.40;;;;;;5086704;28;19930;-59
2021/07/10 02:29:07;;;;;;;;;;;25.50;52.30;;;;;;5088535;28;20270;-60
2021/07/10 02:31:35;;;;;;;;;;;25.50;52.30;;;;;;5086568;28;19943;-60
2021/07/10 02:34:01;;;;;;;;;;;25.50;52.40;;;;;;5088438;28;19919;-60
2021/07/10 02:36:27;;;;;;;;;;;25.50;52.40;;;;;;5087157;28;19904;-61
2021/07/10 02:38:52;;;;;;;;;;;25.50;52.40;;;;;;5085569;28;19923;-59
2021/07/10 02:41:18;;;;;;;;;;;25.50;52.40;;;;;;5086271;28;19916;-59
2021/07/10 02:43:43;;;;;;;;;;;25.50;52.50;;;;;;5086737;28;20337;-60
2021/07/10 02:46:09;;;;;;;;;;;25.40;52.40;;;;;;5086362;28;19958;-60
2021/07/10 02:48:34;;;;;;;;;;;25.40;52.40;;;;;;5087411;28;19927;-60
2021/07/10 02:51:00;;;;;;;;;;;25.40;52.40;;;;;;5088259;28;19936;-60
2021/07/10 02:53:26;;;;;;;;;;;25.40;52.40;;;;;;5087364;28;20014;-60
2021/07/10 02:55:51;;;;;;;;;;;25.40;52.40;;;;;;5087575;28;19965;-59
2021/07/10 02:58:17;;;;;;;;;;;25.40;52.50;;;;;;5065711;28;19995;-60
2021/07/10 03:00:42;;;;;;;;;;;25.40;52.50;;;;;;5087214;28;19915;-60
2021/07/10 03:03:08;;;;;;;;;;;25.40;52.50;;;;;;5075314;28;19930;-60
2021/07/10 03:05:34;;;;;;;;;;;25.40;52.50;;;;;;5083409;28;20273;-60
2021/07/10 03:08:00;;;;;;;;;;;25.40;52.50;;;;;;5087409;28;20230;-59
2021/07/10 03:10:27;;;;;;;;;;;25.40;52.60;;;;;;5088272;28;20292;-60
2021/07/10 03:12:53;;;;;;;;;;;25.40;52.50;;;;;;5088764;28;19966;-59
2021/07/10 03:15:18;;;;;;;;;;;25.40;52.60;;;;;;5088431;28;20358;-59
2021/07/10 03:17:45;;;;;;;;;;;25.30;52.50;;;;;;5069690;28;19908;-59
2021/07/10 03:20:11;;;;;;;;;;;25.30;52.50;;;;;;5082388;28;19920;-60
2021/07/10 03:22:37;;;;;;;;;;;25.30;52.50;;;;;;5085507;28;20259;-59
2021/07/10 03:25:03;;;;;;;;;;;25.30;52.50;;;;;;5087048;28;19919;-60
2021/07/10 03:27:29;;;;;;;;;;;25.30;52.50;;;;;;5087613;28;20320;-59
2021/07/10 03:29:55;;;;;;;;;;;25.30;52.60;;;;;;5088179;28;19919;-59
2021/07/10 03:32:20;;;;;;;;;;;25.30;52.60;;;;;;5088335;28;20004;-60
2021/07/10 03:34:46;;;;;;;;;;;25.30;52.60;;;;;;5086899;28;19912;-60
2021/07/10 03:37:11;;;;;;;;;;;25.30;52.60;;;;;;5086259;28;20542;-60
2021/07/10 03:39:37;;;;;;;;;;;25.20;52.50;;;;;;5086717;28;19915;-60
2021/07/10 03:42:02;;;;;;;;;;;25.20;52.60;;;;;;5091540;28;20002;-59
2021/07/10 03:44:28;;;;;;;;;;;25.20;52.50;;;;;;5101073;28;20022;-59
2021/07/10 03:46:53;;;;;;;;;;;25.20;52.60;;;;;;5085464;28;20695;-59
2021/07/10 03:49:19;;;;;;;;;;;25.20;52.60;;;;;;5085060;28;19931;-59
2021/07/10 03:51:44;;;;;;;;;;;25.20;52.60;;;;;;5086096;28;19916;-61
2021/07/10 03:54:10;;;;;;;;;;;25.20;52.60;;;;;;5085614;28;20568;-59
2021/07/10 03:56:35;;;;;;;;;;;25.20;52.60;;;;;;5085044;28;19947;-60
2021/07/10 03:59:01;;;;;;;;;;;25.20;52.60;;;;;;5087603;28;19912;-60
2021/07/10 04:01:26;;;;;;;;;;;25.20;52.60;;;;;;5088679;28;19948;-60
2021/07/10 04:03:52;;;;;;;;;;;25.20;52.60;;;;;;5096059;28;20018;-58
2021/07/10 04:06:17;;;;;;;;;;;25.20;52.60;;;;;;5086069;28;20256;-60
2021/07/10 04:08:43;;;;;;;;;;;25.10;52.60;;;;;;5085530;28;19915;-60
2021/07/10 04:11:10;;;;;;;;;;;25.10;52.60;;;;;;5085755;28;19950;-59
2021/07/10 04:13:35;;;;;;;;;;;25.10;52.60;;;;;;5088154;28;19916;-60
2021/07/10 04:16:01;;;;;;;;;;;25.10;52.60;;;;;;5086877;28;19938;-60
2021/07/10 04:18:27;;;;;;;;;;;25.10;52.70;;;;;;5087270;28;19912;-59
2021/07/10 04:20:52;;;;;;;;;;;25.10;52.70;;;;;;5086964;28;19924;-59
2021/07/10 04:23:18;;;;;;;;;;;25.10;52.70;;;;;;5099445;28;19983;-60
2021/07/10 04:25:44;;;;;;;;;;;25.10;52.70;;;;;;5089425;28;20812;-60
2021/07/10 04:28:09;;;;;;;;;;;25.10;52.70;;;;;;5080430;28;19915;-59
2021/07/10 04:30:35;;;;;;;;;;;25.10;52.70;;;;;;5095664;28;19916;-60
2021/07/10 04:33:00;;;;;;;;;;;25.10;52.70;;;;;;5090102;28;19965;-59
2021/07/10 04:35:26;;;;;;;;;;;25.10;52.80;;;;;;5100570;28;19912;-59
2021/07/10 04:37:51;;;;;;;;;;;25.10;52.70;;;;;;5078790;28;20252;-60
2021/07/10 04:40:17;;;;;;;;;;;25.10;52.70;;;;;;5087764;28;19992;-59
2021/07/10 04:42:43;;;;;;;;;;;25.10;52.70;;;;;;5083681;28;20339;-59
2021/07/10 04:45:09;;;;;;;;;;;25.10;52.70;;;;;;5101241;28;20258;-59
2021/07/10 04:47:35;;;;;;;;;;;25.10;52.70;;;;;;5091129;28;19911;-60
2021/07/10 04:50:00;;;;;;;;;;;25.10;52.60;;;;;;5085289;28;19935;-61
2021/07/10 04:52:26;;;;;;;;;;;25.00;52.60;;;;;;5096324;28;19950;-60
2021/07/10 04:54:52;;;;;;;;;;;25.00;52.60;;;;;;5084813;28;19931;-59
2021/07/10 04:57:17;;;;;;;;;;;25.00;52.60;;;;;;5098356;28;19961;-59
2021/07/10 04:59:43;;;;;;;;;;;25.00;52.60;;;;;;5084490;28;19919;-59
2021/07/10 05:02:08;;;;;;;;;;;25.00;52.60;;;;;;5083695;28;20347;-60
2021/07/10 05:04:34;;;;;;;;;;;25.00;52.60;;;;;;5086003;28;19908;-59
2021/07/10 05:06:59;;;;;;;;;;;25.00;52.60;;;;;;5092281;28;20365;-60
2021/07/10 05:09:25;;;;;;;;;;;25.00;52.60;;;;;;5104971;28;19912;-59
2021/07/10 05:11:50;;;;;;;;;;;25.00;52.60;;;;;;5087639;28;19947;-61
2021/07/10 05:14:16;;;;;;;;;;;25.00;52.50;;;;;;5086825;28;20030;-60
2021/07/10 05:16:42;;;;;;;;;;;25.00;52.50;;;;;;5077883;28;19908;-59
2021/07/10 05:19:07;;;;;;;;;;;25.00;52.50;;;;;;5089043;28;19912;-60
2021/07/10 05:21:33;;;;;;;;;;;25.00;52.60;;;;;;5087943;28;19915;-59
2021/07/10 05:23:59;;;;;;;;;;;25.00;52.50;;;;;;5089222;28;19923;-60
2021/07/10 05:26:24;;;;;;;;;;;25.00;52.50;;;;;;5090056;28;20232;-59
2021/07/10 05:28:50;;;;;;;;;;;24.90;52.50;;;;;;5059018;28;20327;-60
2021/07/10 05:31:15;;;;;;;;;;;24.90;52.50;;;;;;5086295;28;19916;-59
2021/07/10 05:33:43;;;;;;;;;;;25.00;52.50;;;;;;5088132;28;20303;-60
2021/07/10 05:36:09;;;;;;;;;;;24.90;52.50;;;;;;5099140;28;19912;-60
2021/07/10 05:38:34;;;;;;;;;;;24.90;52.50;;;;;;5086892;28;20095;-59
2021/07/10 05:41:00;;;;;;;;;;;24.90;52.50;;;;;;5087566;28;19966;-59
2021/07/10 05:43:25;;;;;;;;;;;24.90;52.50;;;;;;5087501;28;19923;-61
2021/07/10 05:45:51;;;;;;;;;;;24.90;52.50;;;;;;5089803;28;20011;-61
2021/07/10 05:48:17;;;;;;;;;;;24.90;52.50;;;;;;5088511;28;20015;-59
2021/07/10 05:50:43;;;;;;;;;;;24.90;52.50;;;;;;5087809;28;20388;-60
2021/07/10 05:53:08;;;;;;;;;;;24.90;52.40;;;;;;5086912;28;19920;-60
2021/07/10 05:55:34;;;;;;;;;;;24.90;52.50;;;;;;5086066;28;19912;-59
2021/07/10 05:58:00;;;;;;;;;;;24.90;52.50;;;;;;5087594;28;19924;-60
2021/07/10 06:00:26;;;;;;;;;;;24.90;52.50;;;;;;5083937;28;19920;-60
2021/07/10 06:02:51;;;;;;;;;;;24.90;52.50;;;;;;5091227;28;19975;-59
2021/07/10 06:05:17;;;;;;;;;;;24.80;52.40;;;;;;5101445;28;19912;-60
2021/07/10 06:07:42;;;;;;;;;;;24.80;52.50;;;;;;5085542;28;20598;-59
2021/07/10 06:10:11;;;;;;;;;;;24.80;52.40;;;;;;5086342;28;19912;-59
2021/07/10 06:12:37;;;;;;;;;;;24.80;52.40;;;;;;5089112;28;20339;-59
2021/07/10 06:15:03;;;;;;;;;;;24.80;52.40;;;;;;5087096;28;19923;-60
2021/07/10 06:17:29;;;;;;;;;;;24.80;52.50;;;;;;5086455;28;19912;-59
2021/07/10 06:19:54;;;;;;;;;;;24.80;52.40;;;;;;5094495;28;19916;-59
2021/07/10 06:22:20;;;;;;;;;;;24.80;52.50;;;;;;5086355;28;19943;-59
2021/07/10 06:24:45;;;;;;;;;;;24.80;52.50;;;;;;5086473;28;20030;-60
2021/07/10 06:27:11;;;;;;;;;;;24.80;52.40;;;;;;5084021;28;19919;-60
2021/07/10 06:29:36;;;;;;;;;;;24.80;52.50;;;;;;5093579;28;20334;-60
2021/07/10 06:32:02;;;;;;;;;;;24.80;52.50;;;;;;5079262;28;19927;-59
2021/07/10 06:34:28;;;;;;;;;;;24.80;52.50;;;;;;5086462;28;19916;-60
2021/07/10 06:36:53;;;;;;;;;;;24.80;52.50;;;;;;5088870;28;19912;-59
2021/07/10 06:39:20;;;;;;;;;;;24.80;52.50;;;;;;5086307;28;19919;-59
2021/07/10 06:41:46;;;;;;;;;;;24.80;52.50;;;;;;5090518;28;20228;-60
2021/07/10 06:44:11;;;;;;;;;;;24.80;52.50;;;;;;5086185;28;19927;-60
2021/07/10 06:46:37;;;;;;;;;;;24.80;52.50;;;;;;5087797;28;19912;-60
2021/07/10 06:49:03;;;;;;;;;;;24.80;52.50;;;;;;5086864;28;19998;-59
2021/07/10 06:51:29;;;;;;;;;;;24.80;52.50;;;;;;5091304;28;19919;-59
2021/07/10 06:53:54;;;;;;;;;;;24.80;52.50;;;;;;5085615;28;20045;-60
2021/07/10 06:56:20;;;;;;;;;;;24.80;52.50;;;;;;5083682;28;20419;-61
2021/07/10 06:58:45;;;;;;;;;;;24.80;52.50;;;;;;5088454;28;20341;-59
2021/07/10 07:01:11;;;;;;;;;;;24.80;52.50;;;;;;5085815;28;19920;-61
2021/07/10 07:03:38;;;;;;;;;;;24.80;52.50;;;;;;5087916;28;19919;-58
2021/07/10 07:06:03;;;;;;;;;;;24.80;52.50;;;;;;5084800;28;19912;-60
2021/07/10 07:08:29;;;;;;;;;;;24.80;52.50;;;;;;5085153;28;19918;-60
2021/07/10 07:10:54;;;;;;;;;;;24.80;52.50;;;;;;5089092;28;19922;-60
2021/07/10 07:13:20;;;;;;;;;;;24.80;52.60;;;;;;5086177;28;20136;-60
2021/07/10 07:15:45;;;;;;;;;;;24.80;52.60;;;;;;5084702;28;20382;-60
2021/07/10 07:18:15;;;;;;;;;;;24.80;52.50;;;;;;5086836;28;19930;-60
2021/07/10 07:20:41;;;;;;;;;;;24.80;52.50;;;;;;5081080;28;20370;-59
2021/07/10 07:23:07;;;;;;;;;;;24.70;52.50;;;;;;5086597;28;19912;-59
2021/07/10 07:25:34;;;;;;;;;;;24.80;52.60;;;;;;5087629;28;20342;-59
2021/07/10 07:28:00;;;;;;;;;;;24.80;52.60;;;;;;5072444;28;20428;-60
2021/07/10 07:30:25;;;;;;;;;;;24.70;52.60;;;;;;5067428;28;19912;-60
2021/07/10 07:32:51;;;;;;;;;;;24.70;52.60;;;;;;5087248;28;19919;-60
2021/07/10 07:35:17;;;;;;;;;;;24.70;52.60;;;;;;5075525;28;20820;-61
2021/07/10 07:37:43;;;;;;;;;;;24.70;52.60;;;;;;5060732;28;20424;-60
2021/07/10 07:40:10;;;;;;;;;;;24.70;52.60;;;;;;5086074;28;19912;-59
2021/07/10 07:42:36;;;;;;;;;;;24.70;52.60;;;;;;5086773;28;20008;-60
2021/07/10 07:45:02;;;;;;;;;;;24.70;52.60;;;;;;5087487;28;20377;-59
2021/07/10 07:47:28;;;;;;;;;;;24.70;52.60;;;;;;5087333;28;20003;-59
2021/07/10 07:49:53;;;;;;;;;;;24.70;52.60;;;;;;5087817;28;20094;-60
2021/07/10 07:52:19;;;;;;;;;;;24.70;52.60;;;;;;5086591;28;20613;-60
2021/07/10 07:54:44;;;;;;;;;;;24.80;52.70;;;;;;5086583;28;20356;-59
2021/07/10 07:57:10;;;;;;;;;;;24.80;52.60;;;;;;5070406;28;19915;-60
2021/07/10 07:59:36;;;;;;;;;;;24.70;52.60;;;;;;5067944;28;19908;-59
2021/07/10 08:02:01;;;;;;;;;;;24.70;52.60;;;;;;5086575;28;20262;-60
2021/07/10 08:04:27;;;;;;;;;;;24.70;52.60;;;;;;5086030;28;20042;-60
2021/07/10 08:06:53;;;;;;;;;;;24.70;52.60;;;;;;5086243;28;19976;-61
2021/07/10 08:09:18;;;;;;;;;;;24.70;52.50;;;;;;5095399;28;19919;-59
2021/07/10 08:11:44;;;;;;;;;;;24.80;52.60;;;;;;5085198;28;19962;-60
2021/07/10 08:14:09;;;;;;;;;;;24.70;52.50;;;;;;5085406;28;19969;-61
2021/07/10 08:16:35;;;;;;;;;;;24.80;52.60;;;;;;5081201;28;20396;-60
2021/07/10 08:19:00;;;;;;;;;;;24.70;52.50;;;;;;5086516;28;19916;-61
2021/07/10 08:21:27;;;;;;;;;;;24.80;52.60;;;;;;5085557;28;19926;-60
2021/07/10 08:23:56;;;;;;;;;;;24.70;53.10;;;;;;5081220;28;19916;-60
2021/07/10 08:26:21;;;;;;;;;;;24.70;52.60;;;;;;5076609;28;20575;-59
2021/07/10 08:28:47;;;;;;;;;;;24.80;52.60;;;;;;5060512;28;19920;-59
2021/07/10 08:31:12;;;;;;;;;;;24.70;52.60;;;;;;5074284;28;20254;-59
2021/07/10 08:33:38;;;;;;;;;;;24.80;52.60;;;;;;5082888;28;19916;-59
2021/07/10 08:36:04;;;;;;;;;;;24.70;52.60;;;;;;5071895;28;20000;-59
2021/07/10 08:38:30;;;;;;;;;;;24.80;52.70;;;;;;5075219;28;19912;-59
2021/07/10 08:40:55;;;;;;;;;;;24.80;52.90;;;;;;5077321;28;19986;-57
2021/07/10 08:43:21;;;;;;;;;;;24.80;53.00;;;;;;5076585;28;19924;-59
2021/07/10 08:45:47;;;;;;;;;;;24.70;52.90;;;;;;5083913;28;19999;-60
2021/07/10 08:48:13;;;;;;;;;;;24.80;52.90;;;;;;5087823;28;19955;-59
2021/07/10 08:50:39;;;;;;;;;;;24.70;52.70;;;;;;5088681;28;19951;-60
2021/07/10 08:53:05;;;;;;;;;;;24.70;52.70;;;;;;5087324;28;20318;-57
2021/07/10 08:55:30;;;;;;;;;;;24.70;52.60;;;;;;5086540;28;19927;-59
2021/07/10 08:57:56;;;;;;;;;;;24.70;52.70;;;;;;5084010;28;20688;-59
2021/07/10 09:00:24;;;;;;;;;;;24.70;52.70;;;;;;5086227;28;19943;-59
2021/07/10 09:02:50;;;;;;;;;;;24.70;52.60;;;;;;5080907;28;20254;-59
2021/07/10 09:05:16;;;;;;;;;;;24.70;52.70;;;;;;5085629;28;19912;-59
2021/07/10 09:08:00;;;;;;;;;;;24.70;52.60;;;;;;5086362;28;19980;-60
2021/07/10 09:10:35;;;;;;;;;;;24.60;52.60;;;;;;5082920;28;19939;-60
2021/07/10 09:13:01;;;;;;;;;;;24.60;52.60;;;;;;5079669;28;19915;-60
2021/07/10 09:15:27;;;;;;;;;;;24.60;52.60;;;;;;5087853;28;20315;-60
2021/07/10 09:17:53;;;;;;;;;;;24.60;52.60;;;;;;5089262;28;19911;-59
2021/07/10 09:20:23;;;;;;;;;;;24.60;52.70;;;;;;5089559;28;19912;-59
2021/07/10 09:22:49;;;;;;;;;;;24.60;52.80;;;;;;5071204;28;19908;-60
2021/07/10 09:25:29;;;;;;;;;;;24.60;52.70;;;;;;5084642;28;20406;-58
2021/07/10 09:27:57;;;;;;;;;;;24.60;52.70;;;;;;5078568;28;19940;-58
2021/07/10 09:30:33;;;;;;;;;;;24.60;52.70;;;;;;5085209;28;20353;-60
2021/07/10 09:33:16;;;;;;;;;;;24.60;52.70;;;;;;5089209;28;19922;-60
2021/07/10 09:35:58;;;;;;;;;;;24.60;53.20;;;;;;5088569;28;19915;-60
2021/07/10 09:38:28;;;;;;;;;;;24.60;52.60;;;;;;5088274;28;19976;-59
2021/07/10 09:40:58;;;;;;;;;;;24.60;52.70;;;;;;5063317;28;20345;-59
2021/07/10 09:43:24;;;;;;;;;;;24.60;52.70;;;;;;5090328;28;19987;-59
2021/07/10 09:45:50;;;;;;;;;;;24.60;52.70;;;;;;5093439;28;19961;-59
2021/07/10 09:48:15;;;;;;;;;;;24.60;52.70;;;;;;5083748;28;19904;-60
2021/07/10 09:50:41;;;;;;;;;;;24.60;52.80;;;;;;5088000;28;20358;-59
2021/07/10 09:53:27;;;;;;;;;;;24.60;52.80;;;;;;5090031;28;19998;-57
2021/07/10 09:56:09;;;;;;;;;;;24.60;52.80;;;;;;5086538;28;19911;-60
2021/07/10 09:58:35;;;;;;;;;;;24.60;52.80;;;;;;5089231;28;20271;-59
2021/07/10 10:01:20;;;;;;;;;;;24.60;52.90;;;;;;5093287;28;19965;-61
2021/07/10 10:03:45;;;;;;;;;;;24.60;52.90;;;;;;5088943;28;19996;-60
2021/07/10 10:06:27;;;;;;;;;;;24.60;52.90;;;;;;5088445;28;19968;-57
2021/07/10 10:08:52;;;;;;;;;;;24.60;52.90;;;;;;5088131;28;19918;-59
2021/07/10 10:11:18;;;;;;;;;;;24.60;52.90;;;;;;5069437;28;19927;-60
2021/07/10 10:13:43;;;;;;;;;;;24.60;52.80;;;;;;5093519;28;20354;-61
2021/07/10 10:16:14;;;;;;;;;;;24.60;52.80;;;;;;5091425;28;19908;-60
2021/07/10 10:18:42;;;;;;;;;;;24.60;52.80;;;;;;5086826;28;20314;-59
2021/07/10 10:21:08;;;;;;;;;;;24.60;52.80;;;;;;5081452;28;20395;-58
2021/07/10 10:23:34;;;;;;;;;;;24.60;52.90;;;;;;5091182;28;19911;-59
2021/07/10 10:26:00;;;;;;;;;;;24.60;52.90;;;;;;5091656;28;19908;-59
2021/07/10 10:28:25;;;;;;;;;;;24.60;52.90;;;;;;5089184;28;19908;-59
2021/07/10 10:30:52;;;;;;;;;;;24.60;52.90;;;;;;5080263;28;19934;-58
2021/07/10 10:33:18;;;;;;;;;;;24.60;52.90;;;;;;5095157;28;20404;-57
2021/07/10 10:35:44;;;;;;;;;;;24.60;53.00;;;;;;5098442;28;19998;-60
2021/07/10 10:38:10;;;;;;;;;;;24.60;52.90;;;;;;5098852;28;19934;-59
2021/07/10 10:40:35;;;;;;;;;;;24.60;52.90;;;;;;5089428;28;20386;-54
2021/07/10 10:43:01;;;;;;;;;;;24.60;52.90;;;;;;5087173;28;19920;-58
2021/07/10 10:45:27;;;;;;;;;;;24.60;53.20;;;;;;5094265;28;19998;-57
2021/07/10 10:47:53;;;;;;;;;;;24.60;53.00;;;;;;5095849;28;20002;-58
2021/07/10 10:50:23;;;;;;;;;;;24.60;53.00;;;;;;5088858;28;19915;-56
2021/07/10 10:52:49;;;;;;;;;;;24.60;53.00;;;;;;5088958;28;20330;-59
2021/07/10 10:55:14;;;;;;;;;;;24.60;53.00;;;;;;5089505;28;19951;-61
2021/07/10 10:57:42;;;;;;;;;;;24.60;53.00;;;;;;5095712;28;19908;-58
2021/07/10 11:00:08;;;;;;;;;;;24.60;53.00;;;;;;5089096;28;20053;-55
2021/07/10 11:02:33;;;;;;;;;;;24.60;53.00;;;;;;5079916;28;20338;-56
2021/07/10 11:04:59;;;;;;;;;;;24.60;53.10;;;;;;5075321;28;19908;-58
2021/07/10 11:07:28;;;;;;;;;;;24.60;53.00;;;;;;5090342;28;19923;-59
2021/07/10 11:10:02;;;;;;;;;;;24.60;53.00;;;;;;5091257;28;19907;-59
2021/07/10 11:12:48;;;;;;;;;;;24.60;53.00;;;;;;5094665;28;19958;-57
2021/07/10 11:15:30;;;;;;;;;;;24.60;53.10;;;;;;5086036;28;19914;-58
2021/07/10 11:17:56;;;;;;;;;;;24.60;53.00;;;;;;5085710;28;20002;-56
2021/07/10 11:20:40;;;;;;;;;;;24.60;53.00;;;;;;5096606;28;19915;-58
2021/07/10 11:23:07;;;;;;;;;;;24.60;53.00;;;;;;5082170;28;20034;-59
2021/07/10 11:25:51;;;;;;;;;;;24.60;53.10;;;;;;5081182;28;19912;-59
2021/07/10 11:28:21;;;;;;;;;;;24.60;53.10;;;;;;5080854;28;20341;-60
2021/07/10 11:30:47;;;;;;;;;;;24.60;53.10;;;;;;5085780;28;20289;-60
2021/07/10 11:33:13;;;;;;;;;;;24.60;53.10;;;;;;5081382;28;19923;-60
2021/07/10 11:35:39;;;;;;;;;;;24.60;53.10;;;;;;5072250;28;19920;-59
2021/07/10 11:38:05;;;;;;;;;;;24.60;53.10;;;;;;5082748;28;19981;-61
2021/07/10 11:40:38;;;;;;;;;;;24.60;53.10;;;;;;5083516;28;19988;-59
2021/07/10 11:43:08;;;;;;;;;;;24.60;53.20;;;;;;5080338;28;19942;-61
2021/07/10 11:45:34;;;;;;;;;;;24.60;53.20;;;;;;5085482;28;19912;-60
2021/07/10 11:48:16;;;;;;;;;;;24.60;53.20;;;;;;5080121;28;19912;-58
2021/07/10 11:50:42;;;;;;;;;;;24.60;53.20;;;;;;5084329;28;20368;-61
2021/07/10 11:53:09;;;;;;;;;;;24.60;53.20;;;;;;5085087;28;19916;-61
2021/07/10 11:55:35;;;;;;;;;;;24.60;53.20;;;;;;5089338;28;19919;-60
2021/07/10 11:58:17;;;;;;;;;;;24.70;53.20;;;;;;5081595;28;19911;-58
2021/07/10 12:00:44;;;;;;;;;;;24.60;53.20;;;;;;5084859;28;20250;-60
2021/07/10 12:03:18;;;;;;;;;;;24.60;53.70;;;;;;5098164;28;20334;-59
2021/07/10 12:05:44;;;;;;;;;;;24.70;53.30;;;;;;5085236;28;20007;-61
2021/07/10 12:08:10;;;;;;;;;;;24.60;53.20;;;;;;5085336;28;20034;-60
2021/07/10 12:10:36;;;;;;;;;;;24.70;53.30;;;;;;5084988;28;20453;-61
2021/07/10 12:13:10;;;;;;;;;;;24.70;53.20;;;;;;5074326;28;19985;-60
2021/07/10 12:15:43;;;;;;;;;;;24.70;53.20;;;;;;5084002;28;19942;-61
2021/07/10 12:18:09;;;;;;;;;;;24.70;53.20;;;;;;5082753;28;19923;-59
2021/07/10 12:20:35;;;;;;;;;;;24.70;53.20;;;;;;5086302;28;19915;-60
2021/07/10 12:23:05;;;;;;;;;;;24.70;53.20;;;;;;5081989;28;19927;-59
2021/07/10 12:25:52;;;;;;;;;;;24.70;53.20;;;;;;5084008;28;19958;-60
2021/07/10 12:28:27;;;;;;;;;;;24.70;53.20;;;;;;5079138;28;20261;-61
2021/07/10 12:30:56;;;;;;;;;;;24.70;53.20;;;;;;5080116;28;19989;-60
2021/07/10 12:33:27;;;;;;;;;;;24.80;53.20;;;;;;5088293;28;19955;-59
2021/07/10 12:36:22;;;;;;;;;;;24.70;53.20;;;;;;5077409;28;20007;-61
2021/07/10 12:38:55;;;;;;;;;;;24.80;53.30;;;;;;5080121;28;19919;-59
2021/07/10 12:41:27;;;;;;;;;;;24.80;53.20;;;;;;5066484;28;20757;-62
2021/07/10 12:43:53;;;;;;;;;;;24.80;53.20;;;;;;5085958;28;19938;-62
2021/07/10 12:46:19;;;;;;;;;;;24.80;53.20;;;;;;5084648;28;20311;-60
2021/07/10 12:48:45;;;;;;;;;;;24.80;53.20;;;;;;5087505;28;19916;-58
2021/07/10 12:51:10;;;;;;;;;;;24.80;53.20;;;;;;5084190;28;20275;-58
2021/07/10 12:53:38;;;;;;;;;;;24.80;53.20;;;;;;5076647;28;19912;-59
2021/07/10 12:56:24;;;;;;;;;;;24.80;53.40;;;;;;5082910;28;19931;-61
2021/07/10 12:58:50;;;;;;;;;;;24.80;53.20;;;;;;5078172;28;19936;-59
2021/07/10 13:01:34;;;;;;;;;;;24.90;53.10;;;;;;5086615;28;19920;-61
2021/07/10 13:03:59;;;;;;;;;;;24.90;53.00;;;;;;5081390;28;19936;-58
2021/07/10 13:06:25;;;;;;;;;;;24.90;52.90;;;;;;5083254;28;19959;-58
2021/07/10 13:08:55;;;;;;;;;;;24.90;52.80;;;;;;5086311;28;20226;-60
2021/07/10 13:11:21;;;;;;;;;;;25.00;52.80;;;;;;5087648;28;19960;-58
2021/07/10 13:13:54;;;;;;;;;;;25.00;52.80;;;;;;5089632;28;20003;-58
2021/07/10 13:16:20;;;;;;;;;;;25.00;52.80;;;;;;5085839;28;19908;-59
2021/07/10 13:18:50;;;;;;;;;;;25.00;52.70;;;;;;5086500;28;20540;-59
2021/07/10 13:21:27;;;;;;;;;;;25.00;52.80;;;;;;5082185;28;19951;-60
2021/07/10 13:24:00;;;;;;;;;;;25.00;52.70;;;;;;5080917;28;19916;-58
2021/07/10 13:26:29;;;;;;;;;;;25.00;52.70;;;;;;5082896;28;19923;-61
2021/07/10 13:29:09;;;;;;;;;;;25.10;52.70;;;;;;5090280;28;19908;-58
2021/07/10 13:31:39;;;;;;;;;;;25.10;52.70;;;;;;5081950;28;20034;-59
2021/07/10 13:34:06;;;;;;;;;;;25.10;52.80;;;;;;5087419;28;20003;-59
2021/07/10 13:36:35;;;;;;;;;;;25.10;52.70;;;;;;5085128;28;19947;-60
2021/07/10 13:39:04;;;;;;;;;;;25.10;52.70;;;;;;5083131;28;20057;-60
2021/07/10 13:41:30;;;;;;;;;;;25.10;52.70;;;;;;5085835;28;20133;-58
2021/07/10 13:44:04;;;;;;;;;;;25.10;52.70;;;;;;5085451;28;19982;-61
2021/07/10 13:46:31;;;;;;;;;;;25.10;52.70;;;;;;5089302;28;19918;-60
2021/07/10 13:48:57;;;;;;;;;;;25.10;52.70;;;;;;5088740;28;19912;-60
2021/07/10 13:51:25;;;;;;;;;;;25.10;52.70;;;;;;5088623;28;20007;-60
2021/07/10 13:53:52;;;;;;;;;;;25.10;52.70;;;;;;5087881;28;19911;-56
2021/07/10 13:56:19;;;;;;;;;;;25.10;52.70;;;;;;5086417;28;19933;-60
2021/07/10 13:59:03;;;;;;;;;;;25.10;52.60;;;;;;5086532;28;19908;-58
2021/07/10 14:01:28;;;;;;;;;;;25.10;52.60;;;;;;5078344;28;19924;-61
2021/07/10 14:03:54;;;;;;;;;;;25.10;52.60;;;;;;5063211;28;19927;-58
2021/07/10 14:06:19;;;;;;;;;;;25.20;52.70;;;;;;5085311;28;20545;-60
2021/07/10 14:08:45;;;;;;;;;;;25.20;52.70;;;;;;5086791;28;19935;-60
2021/07/10 14:11:10;;;;;;;;;;;25.10;52.60;;;;;;5086610;28;19937;-57
2021/07/10 14:13:38;;;;;;;;;;;25.10;52.60;;;;;;5086662;28;19930;-59
2021/07/10 14:16:03;;;;;;;;;;;25.20;52.60;;;;;;5083690;28;20017;-58